createdAt,value
2018-06-21T00:03:11.489Z,22.65
2018-06-21T00:07:50.026Z,22.88
2018-06-21T00:12:32.038Z,23.12
2018-06-21T00:17:10.673Z,23.08
2018-06-21T00:21:52.305Z,22.45
2018-06-21T00:26:30.855Z,22.09
2018-06-21T00:31:09.499Z,21.45
2018-06-21T00:35:51.771Z,21.58
2018-06-21T00:40:30.381Z,22.04
2018-06-21T00:45:12.739Z,22.11
2018-06-21T00:49:51.374Z,22.54
2018-06-21T00:54:33.472Z,23.23
2018-06-21T00:59:12.001Z,23.18
2018-06-21T01:03:54.369Z,23.30
2018-06-21T01:08:32.989Z,23.37
2018-06-21T01:13:14.845Z,23.08
2018-06-21T01:17:53.472Z,23.07
2018-06-21T01:22:32.230Z,22.78
2018-06-21T01:27:11.614Z,22.52
2018-06-21T01:31:50.483Z,22.21
2018-06-21T01:36:29.032Z,22.38
2018-06-21T01:41:07.614Z,22.66
2018-06-21T01:45:47.407Z,22.97
2018-06-21T01:50:25.935Z,22.78
2018-06-21T01:55:05.302Z,22.36
2018-06-21T01:59:43.768Z,22.41
2018-06-21T02:04:26.065Z,22.52
2018-06-21T02:09:08.625Z,22.48
2018-06-21T02:13:47.259Z,22.32
2018-06-21T02:18:25.913Z,22.33
2018-06-21T02:23:05.573Z,22.51
2018-06-21T02:27:44.241Z,22.27
2018-06-21T02:32:26.168Z,22.43
2018-06-21T02:37:04.766Z,22.31
2018-06-21T02:41:46.687Z,22.44
2018-06-21T02:46:25.310Z,22.66
2018-06-21T02:51:03.941Z,22.63
2018-06-21T02:55:42.529Z,22.53
2018-06-21T03:00:21.162Z,22.77
2018-06-21T03:05:02.843Z,22.57
2018-06-21T03:09:41.356Z,22.20
2018-06-21T03:14:23.200Z,22.43
2018-06-21T03:19:01.771Z,21.78
2018-06-21T03:23:43.846Z,21.14
2018-06-21T03:28:22.514Z,21.40
2018-06-21T03:33:02.262Z,21.88
2018-06-21T03:37:40.988Z,22.15
2018-06-21T03:42:23.370Z,22.08
2018-06-21T03:47:02.059Z,22.34
2018-06-21T03:51:44.661Z,21.48
2018-06-21T03:56:23.753Z,21.59
2018-06-21T04:01:06.376Z,22.04
2018-06-21T04:05:44.929Z,22.32
2018-06-21T04:10:23.607Z,22.51
2018-06-21T04:15:05.852Z,22.69
2018-06-21T04:19:44.285Z,22.77
2018-06-21T04:24:23.819Z,22.91
2018-06-21T04:29:02.426Z,23.11
2018-06-21T04:33:41.304Z,23.17
2018-06-21T04:38:19.979Z,23.35
2018-06-21T04:42:58.518Z,23.30
2018-06-21T04:47:37.070Z,23.03
2018-06-21T04:52:16.687Z,23.38
2018-06-21T04:56:55.182Z,23.54
2018-06-21T05:01:35.425Z,23.73
2018-06-21T05:06:14.017Z,23.83
2018-06-21T05:10:52.516Z,23.88
2018-06-21T05:15:31.201Z,23.86
2018-06-21T05:20:09.770Z,24.01
2018-06-21T05:24:49.222Z,24.09
2018-06-21T05:29:27.604Z,24.24
2018-06-21T05:34:14.247Z,24.11
2018-06-21T05:38:52.798Z,24.27
2018-06-21T05:43:35.149Z,24.35
2018-06-21T05:48:13.739Z,24.54
2018-06-21T05:52:53.525Z,24.55
2018-06-21T05:57:32.047Z,24.80
2018-06-21T06:02:10.853Z,24.88
2018-06-21T06:06:49.463Z,25.07
2018-06-21T06:11:28.120Z,25.25
2018-06-21T06:16:06.755Z,25.40
2018-06-21T06:20:45.242Z,25.48
2018-06-21T06:25:23.726Z,25.66
2018-06-21T06:30:02.258Z,25.81
2018-06-21T06:34:41.858Z,25.79
2018-06-21T06:39:21.550Z,26.04
2018-06-21T06:44:01.200Z,26.31
2018-06-21T06:48:39.851Z,26.74
2018-06-21T06:53:19.543Z,26.91
2018-06-21T06:57:58.124Z,26.94
2018-06-21T07:02:37.745Z,27.08
2018-06-21T07:07:16.220Z,27.33
2018-06-21T07:11:54.788Z,27.36
2018-06-21T07:16:33.495Z,27.53
2018-06-21T07:21:12.270Z,27.85
2018-06-21T07:25:51.710Z,27.73
2018-06-21T07:30:31.313Z,27.68
2018-06-21T07:35:09.912Z,28.10
2018-06-21T07:39:48.474Z,27.94
2018-06-21T07:44:30.961Z,28.00
2018-06-21T07:49:09.475Z,28.14
2018-06-21T07:53:48.073Z,28.35
2018-06-21T07:58:26.617Z,28.20
2018-06-21T08:03:08.342Z,28.39
2018-06-21T08:07:46.768Z,28.37
2018-06-21T08:12:28.296Z,28.70
2018-06-21T08:17:07.511Z,28.65
2018-06-21T08:21:49.393Z,28.92
2018-06-21T08:26:27.851Z,28.84
2018-06-21T08:31:07.294Z,29.29
2018-06-21T08:35:45.792Z,29.17
2018-06-21T08:40:27.961Z,29.12
2018-06-21T08:45:06.511Z,29.17
2018-06-21T08:49:44.977Z,29.01
2018-06-21T08:54:24.613Z,28.89
2018-06-21T08:59:03.159Z,28.76
2018-06-21T09:03:41.760Z,29.06
2018-06-21T09:08:20.322Z,28.96
2018-06-21T09:12:59.988Z,29.10
2018-06-21T09:17:38.445Z,28.99
2018-06-21T09:22:17.049Z,28.86
2018-06-21T09:26:55.626Z,28.95
2018-06-21T09:31:35.343Z,28.81
2018-06-21T09:36:13.866Z,28.65
2018-06-21T09:41:01.448Z,28.56
2018-06-21T09:45:45.357Z,28.57
2018-06-21T09:50:27.096Z,28.58
2018-06-21T09:55:05.710Z,29.18
2018-06-21T09:59:44.397Z,29.12
2018-06-21T10:04:23.058Z,29.44
2018-06-21T10:09:01.577Z,29.42
2018-06-21T10:13:43.749Z,29.28
2018-06-21T10:18:22.379Z,29.73
2018-06-21T10:23:04.316Z,30.01
2018-06-21T10:27:42.796Z,30.04
2018-06-21T10:32:22.442Z,30.26
2018-06-21T10:37:01.121Z,30.56
2018-06-21T10:41:41.469Z,30.49
2018-06-21T10:46:20.134Z,30.53
2018-06-21T10:50:58.724Z,30.49
2018-06-21T10:55:37.232Z,30.54
2018-06-21T11:00:16.737Z,30.54
2018-06-21T11:04:55.289Z,30.58
2018-06-21T11:09:33.828Z,30.28
2018-06-21T11:14:13.222Z,30.25
2018-06-21T11:18:51.990Z,30.30
2018-06-21T11:23:31.679Z,30.25
2018-06-21T11:28:10.345Z,30.12
2018-06-21T11:32:49.868Z,30.12
2018-06-21T11:37:28.454Z,30.18
2018-06-21T11:42:08.090Z,30.25
2018-06-21T11:46:46.779Z,30.16
2018-06-21T11:51:31.282Z,30.18
2018-06-21T11:56:09.744Z,30.18
2018-06-21T12:00:49.434Z,30.38
2018-06-21T12:05:27.905Z,30.39
2018-06-21T12:10:07.150Z,30.37
2018-06-21T12:14:45.602Z,30.52
2018-06-21T12:19:24.239Z,30.71
2018-06-21T12:24:04.504Z,30.73
2018-06-21T12:28:43.023Z,30.94
2018-06-21T12:33:23.361Z,31.30
2018-06-21T12:38:01.957Z,31.35
2018-06-21T12:42:41.502Z,31.06
2018-06-21T12:47:20.047Z,31.24
2018-06-21T12:51:59.897Z,30.83
2018-06-21T12:56:38.702Z,31.02
2018-06-21T13:01:18.034Z,31.17
2018-06-21T13:05:56.239Z,31.26
2018-06-21T13:10:46.547Z,31.63
2018-06-21T13:15:25.194Z,31.38
2018-06-21T13:20:07.230Z,31.49
2018-06-21T13:24:45.840Z,31.67
2018-06-21T13:29:24.399Z,31.92
2018-06-21T13:34:03.010Z,31.76
2018-06-21T13:38:41.654Z,31.97
2018-06-21T13:43:21.430Z,31.90
2018-06-21T13:48:00.082Z,31.70
2018-06-21T13:52:39.726Z,31.85
2018-06-21T13:57:18.318Z,32.04
2018-06-21T14:02:00.599Z,31.93
2018-06-21T14:06:39.219Z,32.17
2018-06-21T14:11:17.957Z,32.73
2018-06-21T14:15:56.410Z,32.76
2018-06-21T14:20:40.032Z,31.97
2018-06-21T14:25:18.786Z,30.36
2018-06-21T14:29:58.444Z,30.05
2018-06-21T14:34:37.162Z,29.78
2018-06-21T14:39:16.071Z,28.89
2018-06-21T14:43:55.869Z,29.04
2018-06-21T14:48:34.619Z,29.24
2018-06-21T14:53:17.188Z,29.43
2018-06-21T14:57:55.837Z,29.70
2018-06-21T15:02:37.863Z,29.64
2018-06-21T15:07:16.497Z,29.21
2018-06-21T15:11:56.318Z,29.19
2018-06-21T15:16:34.902Z,29.49
2018-06-21T15:21:15.303Z,29.35
2018-06-21T15:25:53.865Z,29.32
2018-06-21T15:30:35.926Z,29.23
2018-06-21T15:35:14.498Z,29.06
2018-06-21T15:39:54.123Z,29.03
2018-06-21T15:44:32.634Z,28.88
2018-06-21T15:49:11.285Z,28.79
2018-06-21T15:53:49.913Z,28.89
2018-06-21T15:58:28.553Z,28.81
2018-06-21T16:03:07.193Z,28.49
2018-06-21T16:07:45.767Z,28.51
2018-06-21T16:12:27.486Z,28.66
2018-06-21T16:17:06.151Z,28.33
2018-06-21T16:21:46.064Z,28.26
2018-06-21T16:26:24.730Z,28.30
2018-06-21T16:31:04.725Z,28.06
2018-06-21T16:35:43.323Z,28.22
2018-06-21T16:40:24.903Z,28.32
2018-06-21T16:45:03.394Z,28.46
2018-06-21T16:49:45.405Z,28.57
2018-06-21T16:54:24.043Z,28.48
2018-06-21T16:59:03.732Z,28.29
2018-06-21T17:03:42.246Z,28.34
2018-06-21T17:08:20.826Z,28.28
2018-06-21T17:13:02.621Z,28.25
2018-06-21T17:17:41.542Z,28.19
2018-06-21T17:22:23.604Z,28.00
2018-06-21T17:27:04.214Z,28.09
2018-06-21T17:31:45.994Z,27.98
2018-06-21T17:36:24.698Z,27.88
2018-06-21T17:41:04.236Z,27.87
2018-06-21T17:45:43.574Z,27.65
2018-06-21T17:50:25.473Z,27.58
2018-06-21T17:55:04.104Z,27.54
2018-06-21T17:59:46.366Z,27.40
2018-06-21T18:04:24.981Z,27.28
2018-06-21T18:09:04.536Z,27.11
2018-06-21T18:13:43.226Z,26.98
2018-06-21T18:18:21.633Z,27.00
2018-06-21T18:23:00.398Z,26.89
2018-06-21T18:27:39.973Z,26.99
2018-06-21T18:32:22.498Z,26.83
2018-06-21T18:37:01.011Z,26.78
2018-06-21T18:41:40.796Z,26.74
2018-06-21T18:46:19.601Z,26.60
2018-06-21T18:50:58.160Z,26.69
2018-06-21T18:55:37.228Z,26.67
2018-06-21T19:00:15.984Z,26.60
2018-06-21T19:04:55.843Z,26.69
2018-06-21T19:09:40.502Z,26.52
2018-06-21T19:14:19.142Z,26.69
2018-06-21T19:18:58.092Z,26.42
2018-06-21T19:23:37.130Z,26.27
2018-06-21T19:28:16.298Z,26.21
2018-06-21T19:33:03.824Z,26.36
2018-06-21T19:37:44.226Z,26.26
2018-06-21T19:42:24.102Z,25.71
2018-06-21T19:47:03.134Z,26.58
2018-06-21T19:51:42.877Z,26.73
2018-06-21T19:56:22.259Z,26.69
2018-06-21T20:01:02.237Z,26.22
2018-06-21T20:05:41.097Z,26.33
2018-06-21T20:10:21.061Z,25.80
2018-06-21T20:14:59.972Z,26.01
2018-06-21T20:19:44.216Z,25.73
2018-06-21T20:24:23.103Z,25.64
2018-06-21T20:29:02.795Z,25.69
2018-06-21T20:33:43.059Z,25.69
2018-06-21T20:38:21.842Z,25.47
2018-06-21T20:43:04.095Z,25.18
2018-06-21T20:47:42.966Z,24.94
2018-06-21T20:52:29.508Z,25.48
2018-06-21T20:57:08.300Z,25.43
2018-06-21T21:01:50.623Z,25.71
2018-06-21T21:06:29.432Z,25.59
2018-06-21T21:11:11.340Z,25.53
2018-06-21T21:15:50.123Z,25.58
2018-06-21T21:20:32.526Z,25.24
2018-06-21T21:25:11.192Z,25.45
2018-06-21T21:29:51.163Z,24.28
2018-06-21T21:34:30.127Z,23.58
2018-06-21T21:39:10.546Z,24.37
2018-06-21T21:43:49.250Z,24.99
2018-06-21T21:48:28.032Z,24.60
2018-06-21T21:53:06.684Z,24.85
2018-06-21T21:57:45.355Z,24.82
2018-06-21T22:02:23.991Z,24.89
2018-06-21T22:07:02.849Z,24.69
2018-06-21T22:11:42.713Z,24.77
2018-06-21T22:16:21.243Z,24.88
2018-06-21T22:21:00.883Z,24.51
2018-06-21T22:25:39.505Z,24.54
2018-06-21T22:30:21.167Z,24.33
2018-06-21T22:34:59.823Z,23.78
2018-06-21T22:39:43.535Z,23.78
2018-06-21T22:44:22.247Z,23.41
2018-06-21T22:49:01.990Z,23.35
2018-06-21T22:53:40.950Z,23.66
2018-06-21T22:58:20.765Z,23.83
2018-06-21T23:02:59.585Z,23.55
2018-06-21T23:07:38.296Z,22.85
2018-06-21T23:12:20.412Z,22.70
2018-06-21T23:16:59.274Z,22.97
2018-06-21T23:21:41.963Z,22.82
2018-06-21T23:26:20.821Z,22.68
2018-06-21T23:31:01.397Z,22.67
2018-06-21T23:35:40.080Z,22.56
2018-06-21T23:40:19.877Z,22.45
2018-06-21T23:44:58.658Z,22.59
2018-06-21T23:49:38.460Z,22.58
2018-06-21T23:54:17.194Z,22.94
2018-06-21T23:58:59.914Z,23.12
